Time;durP1;ratioP1;P1;durP2;ratioP2;P2;SDS_P1;SDS_P2;PMS_P1;PMS_P2;Temp;Humidity;BMP_temperature;BMP_pressure;BME280_temperature;BME280_humidity;BME280_pressure;Samples;Min_cycle;Max_cycle;Signal;HPM_P1;HPM_P2
2021/11/27 00:01:54;;;;;;;;;;;4.60;99.90;;;;;;5056291;28;19938;-79
2021/11/27 00:04:19;;;;;;;;;;;4.60;99.90;;;;;;5056220;28;19915;-78
2021/11/27 00:06:45;;;;;;;;;;;4.50;99.90;;;;;;5056395;28;20333;-79
2021/11/27 00:09:11;;;;;;;;;;;4.50;99.90;;;;;;5054629;28;19956;-79
2021/11/27 00:11:37;;;;;;;;;;;4.50;99.90;;;;;;5056231;28;19909;-79
2021/11/27 00:14:03;;;;;;;;;;;4.50;99.90;;;;;;5056072;28;19939;-79
2021/11/27 00:16:29;;;;;;;;;;;4.50;99.90;;;;;;5055948;28;19920;-78
2021/11/27 00:18:55;;;;;;;;;;;4.60;99.90;;;;;;5056170;28;19909;-79
2021/11/27 00:21:21;;;;;;;;;;;4.70;99.90;;;;;;5055943;28;19908;-78
2021/11/27 00:23:47;;;;;;;;;;;4.80;99.90;;;;;;5055880;28;19916;-78
2021/11/27 00:26:14;;;;;;;;;;;4.90;99.90;;;;;;5055797;28;19912;-79
2021/11/27 00:28:39;;;;;;;;;;;5.00;99.90;;;;;;5055834;28;20004;-79
2021/11/27 00:31:10;;;;;;;;;;;5.10;99.90;;;;;;5055747;28;19944;-79
2021/11/27 00:33:35;;;;;;;;;;;5.20;99.90;;;;;;5055815;28;19909;-78
2021/11/27 00:36:02;;;;;;;;;;;5.20;99.90;;;;;;5054259;28;20383;-78
2021/11/27 00:38:27;;;;;;;;;;;5.10;99.90;;;;;;5056004;28;20293;-78
2021/11/27 00:40:53;;;;;;;;;;;5.30;99.90;;;;;;5054199;28;19912;-78
2021/11/27 00:43:19;;;;;;;;;;;5.20;99.90;;;;;;5055597;28;19909;-79
2021/11/27 00:45:45;;;;;;;;;;;5.10;99.90;;;;;;5055463;28;19909;-79
2021/11/27 00:48:12;;;;;;;;;;;5.20;99.90;;;;;;5055431;28;19932;-79
2021/11/27 00:50:41;;;;;;;;;;;5.00;99.90;;;;;;5055747;28;20004;-79
2021/11/27 00:53:07;;;;;;;;;;;4.90;99.90;;;;;;5054011;28;20262;-78
2021/11/27 00:55:33;;;;;;;;;;;4.90;99.90;;;;;;5055251;28;20046;-79
2021/11/27 00:57:59;;;;;;;;;;;4.90;99.90;;;;;;5053875;28;19913;-79
2021/11/27 01:00:26;;;;;;;;;;;4.90;99.90;;;;;;5055398;28;20368;-79
2021/11/27 01:02:52;;;;;;;;;;;4.80;99.90;;;;;;5055146;28;19909;-79
2021/11/27 01:05:18;;;;;;;;;;;4.70;99.90;;;;;;5055097;28;20400;-78
2021/11/27 01:07:45;;;;;;;;;;;4.50;99.90;;;;;;5055167;28;19995;-79
2021/11/27 01:10:14;;;;;;;;;;;4.60;99.90;;;;;;5054286;28;19928;-79
2021/11/27 01:12:40;;;;;;;;;;;4.70;99.90;;;;;;5054971;28;20385;-79
2021/11/27 01:15:09;;;;;;;;;;;4.80;99.90;;;;;;5054923;28;19959;-79
2021/11/27 01:17:34;;;;;;;;;;;4.70;99.90;;;;;;5053506;28;20335;-79
2021/11/27 01:20:00;;;;;;;;;;;4.90;99.90;;;;;;5054821;28;19908;-79
2021/11/27 01:22:26;;;;;;;;;;;4.90;99.90;;;;;;5054935;28;20375;-78
2021/11/27 01:24:52;;;;;;;;;;;5.00;99.90;;;;;;5054716;28;19909;-79
2021/11/27 01:27:17;;;;;;;;;;;4.80;99.90;;;;;;5054834;28;20277;-79
2021/11/27 01:29:43;;;;;;;;;;;4.80;99.90;;;;;;5053322;28;19995;-78
2021/11/27 01:32:10;;;;;;;;;;;4.20;99.90;;;;;;5054520;28;19915;-78
2021/11/27 01:34:36;;;;;;;;;;;4.10;99.90;;;;;;5054544;28;19966;-79
2021/11/27 01:37:02;;;;;;;;;;;3.90;99.90;;;;;;5054514;28;19919;-78
2021/11/27 01:39:28;;;;;;;;;;;4.00;99.90;;;;;;5054342;28;19909;-79
2021/11/27 01:41:54;;;;;;;;;;;3.90;99.90;;;;;;5053098;28;19915;-78
2021/11/27 01:44:20;;;;;;;;;;;3.90;99.90;;;;;;5054466;28;20004;-78
2021/11/27 01:46:45;;;;;;;;;;;4.00;99.90;;;;;;5054306;28;19908;-78
2021/11/27 01:49:11;;;;;;;;;;;4.00;99.90;;;;;;5054235;28;20366;-78
2021/11/27 01:51:37;;;;;;;;;;;4.10;99.90;;;;;;5054188;28;20372;-79
2021/11/27 01:54:07;;;;;;;;;;;4.00;99.90;;;;;;5054330;28;19923;-79
2021/11/27 01:56:44;;;;;;;;;;;4.00;99.90;;;;;;5052776;28;19916;-79
2021/11/27 01:59:09;;;;;;;;;;;4.00;99.90;;;;;;5054488;28;19992;-79
2021/11/27 02:01:35;;;;;;;;;;;3.90;99.90;;;;;;5054354;28;19951;-79
2021/11/27 02:04:02;;;;;;;;;;;3.90;99.90;;;;;;5054195;28;20376;-78
2021/11/27 02:06:28;;;;;;;;;;;4.00;99.90;;;;;;5052668;28;20317;-78
2021/11/27 02:08:55;;;;;;;;;;;4.10;99.90;;;;;;5053774;28;19920;-77
2021/11/27 02:11:26;;;;;;;;;;;4.20;99.90;;;;;;5054134;28;19909;-78
2021/11/27 02:13:51;;;;;;;;;;;4.10;99.90;;;;;;5053876;28;19963;-78
2021/11/27 02:16:17;;;;;;;;;;;4.00;99.90;;;;;;5053760;28;19909;-78
2021/11/27 02:18:43;;;;;;;;;;;4.00;99.90;;;;;;5053770;28;20369;-79
2021/11/27 02:21:10;;;;;;;;;;;4.10;99.90;;;;;;5051790;28;20510;-78
2021/11/27 02:23:36;;;;;;;;;;;4.10;99.90;;;;;;5053699;28;20382;-79
2021/11/27 02:26:03;;;;;;;;;;;4.10;99.90;;;;;;5053699;28;19909;-78
2021/11/27 02:28:29;;;;;;;;;;;4.10;99.90;;;;;;5053698;28;19987;-79
2021/11/27 02:30:55;;;;;;;;;;;4.10;99.90;;;;;;5053918;28;19908;-78
2021/11/27 02:33:21;;;;;;;;;;;4.10;99.90;;;;;;5052320;28;20365;-79
2021/11/27 02:35:46;;;;;;;;;;;4.00;99.90;;;;;;5053608;28;19916;-78
2021/11/27 02:38:12;;;;;;;;;;;4.10;99.90;;;;;;5053533;28;20262;-79
2021/11/27 02:40:38;;;;;;;;;;;4.10;99.90;;;;;;5052239;28;20361;-79
2021/11/27 02:43:04;;;;;;;;;;;4.00;99.90;;;;;;5053692;28;19916;-78
2021/11/27 02:45:30;;;;;;;;;;;4.00;99.90;;;;;;5053519;28;19909;-78
2021/11/27 02:47:55;;;;;;;;;;;4.00;99.90;;;;;;5053609;28;19912;-79
2021/11/27 02:50:21;;;;;;;;;;;3.90;99.90;;;;;;5053440;28;19912;-78
2021/11/27 02:52:47;;;;;;;;;;;3.90;99.90;;;;;;5053447;28;19916;-79
2021/11/27 02:55:12;;;;;;;;;;;3.70;99.90;;;;;;5052155;28;19920;-78
2021/11/27 02:57:38;;;;;;;;;;;3.70;99.90;;;;;;5053589;28;19917;-79
2021/11/27 03:00:06;;;;;;;;;;;3.70;99.90;;;;;;5053291;28;19909;-78
2021/11/27 03:02:32;;;;;;;;;;;3.60;99.90;;;;;;5053088;28;19971;-79
2021/11/27 03:04:58;;;;;;;;;;;3.60;99.90;;;;;;5053301;28;19955;-79
2021/11/27 03:07:23;;;;;;;;;;;3.50;99.90;;;;;;5053276;28;19935;-79
2021/11/27 03:09:49;;;;;;;;;;;3.60;99.90;;;;;;5053219;28;19920;-78
2021/11/27 03:12:15;;;;;;;;;;;3.50;99.90;;;;;;5052940;28;19947;-79
2021/11/27 03:14:40;;;;;;;;;;;3.50;99.90;;;;;;5053372;28;19991;-79
2021/11/27 03:17:06;;;;;;;;;;;3.40;99.90;;;;;;5053541;28;20001;-79
2021/11/27 03:19:34;;;;;;;;;;;3.40;99.90;;;;;;5051540;28;19908;-79
2021/11/27 03:22:00;;;;;;;;;;;3.30;99.90;;;;;;5052959;28;20278;-78
2021/11/27 03:24:26;;;;;;;;;;;3.30;99.90;;;;;;5052953;28;19930;-79
2021/11/27 03:26:51;;;;;;;;;;;3.40;99.90;;;;;;5053201;28;19913;-79
2021/11/27 03:29:17;;;;;;;;;;;3.40;99.90;;;;;;5053028;28;19959;-78
2021/11/27 03:31:43;;;;;;;;;;;3.40;99.90;;;;;;5052449;28;20281;-79
2021/11/27 03:34:09;;;;;;;;;;;3.40;99.90;;;;;;5054746;28;20291;-78
2021/11/27 03:36:34;;;;;;;;;;;3.50;99.90;;;;;;5054854;28;20270;-78
2021/11/27 03:39:00;;;;;;;;;;;3.60;99.90;;;;;;5056344;28;20396;-79
2021/11/27 03:41:26;;;;;;;;;;;3.70;99.90;;;;;;5055291;28;19909;-79
2021/11/27 03:43:52;;;;;;;;;;;3.70;99.90;;;;;;5054950;28;19991;-78
2021/11/27 03:46:17;;;;;;;;;;;3.60;99.90;;;;;;5055013;28;20273;-78
2021/11/27 03:48:46;;;;;;;;;;;3.60;99.90;;;;;;5056032;28;19921;-78
2021/11/27 03:51:17;;;;;;;;;;;3.70;99.90;;;;;;5055829;28;19924;-78
2021/11/27 03:53:43;;;;;;;;;;;3.70;99.90;;;;;;5056458;28;19940;-78
2021/11/27 03:56:10;;;;;;;;;;;3.90;99.90;;;;;;5056389;28;20401;-78
2021/11/27 03:58:36;;;;;;;;;;;3.90;99.90;;;;;;5055127;28;19913;-78
2021/11/27 04:01:09;;;;;;;;;;;3.90;99.90;;;;;;5055123;28;20262;-78
2021/11/27 04:03:36;;;;;;;;;;;3.90;99.90;;;;;;5056451;28;19908;-78
2021/11/27 04:06:02;;;;;;;;;;;3.90;99.90;;;;;;5054371;28;19909;-79
2021/11/27 04:08:27;;;;;;;;;;;3.90;99.90;;;;;;5055699;28;19908;-78
2021/11/27 04:10:53;;;;;;;;;;;3.80;99.90;;;;;;5054450;28;19924;-79
2021/11/27 04:13:19;;;;;;;;;;;3.80;99.90;;;;;;5054828;28;19915;-79
2021/11/27 04:15:45;;;;;;;;;;;3.80;99.90;;;;;;5056150;28;20004;-78
2021/11/27 04:18:11;;;;;;;;;;;3.80;99.90;;;;;;5055905;28;20000;-79
2021/11/27 04:20:37;;;;;;;;;;;3.80;99.90;;;;;;5055985;28;20344;-79
2021/11/27 04:23:02;;;;;;;;;;;3.80;99.90;;;;;;5056313;28;19956;-79
2021/11/27 04:25:28;;;;;;;;;;;3.70;99.90;;;;;;5055872;28;19955;-78
2021/11/27 04:27:55;;;;;;;;;;;3.80;99.90;;;;;;5055886;28;19955;-77
2021/11/27 04:30:22;;;;;;;;;;;3.80;99.90;;;;;;5054453;28;19916;-79
2021/11/27 04:32:48;;;;;;;;;;;3.80;99.90;;;;;;5055905;28;19996;-78
2021/11/27 04:35:14;;;;;;;;;;;3.90;99.90;;;;;;5055824;28;19989;-78
2021/11/27 04:37:40;;;;;;;;;;;4.00;99.90;;;;;;5055709;28;19913;-79
2021/11/27 04:40:06;;;;;;;;;;;4.10;99.90;;;;;;5055334;28;20300;-78
2021/11/27 04:42:32;;;;;;;;;;;4.10;99.90;;;;;;5055241;28;20037;-78
2021/11/27 04:44:58;;;;;;;;;;;4.10;99.90;;;;;;5054891;28;20448;-78
2021/11/27 04:47:23;;;;;;;;;;;4.30;99.90;;;;;;5055456;28;19912;-79
2021/11/27 04:49:49;;;;;;;;;;;4.40;99.90;;;;;;5055180;28;20423;-78
2021/11/27 04:52:15;;;;;;;;;;;4.50;99.90;;;;;;5055293;28;19959;-79
2021/11/27 04:54:41;;;;;;;;;;;4.50;99.90;;;;;;5055342;28;19999;-78
2021/11/27 04:57:07;;;;;;;;;;;4.60;99.90;;;;;;5055185;28;19913;-79
2021/11/27 04:59:33;;;;;;;;;;;4.60;99.90;;;;;;5055230;28;19915;-79
2021/11/27 05:01:58;;;;;;;;;;;4.70;99.90;;;;;;5055238;28;20320;-79
2021/11/27 05:04:24;;;;;;;;;;;4.60;99.90;;;;;;5055139;28;19909;-79
2021/11/27 05:06:49;;;;;;;;;;;4.70;99.90;;;;;;5053813;28;19909;-79
2021/11/27 05:09:15;;;;;;;;;;;4.60;99.90;;;;;;5054940;28;20400;-79
2021/11/27 05:11:40;;;;;;;;;;;4.50;99.90;;;;;;5055219;28;19909;-78
2021/11/27 05:14:06;;;;;;;;;;;4.40;99.90;;;;;;5054966;28;19916;-78
2021/11/27 05:16:31;;;;;;;;;;;4.40;99.90;;;;;;5054565;28;19974;-78
2021/11/27 05:18:57;;;;;;;;;;;4.30;99.90;;;;;;5054650;28;19909;-79
2021/11/27 05:21:23;;;;;;;;;;;4.30;99.90;;;;;;5054841;28;20431;-78
2021/11/27 05:23:49;;;;;;;;;;;4.40;99.90;;;;;;5054824;28;19932;-78
2021/11/27 05:26:15;;;;;;;;;;;4.30;99.90;;;;;;5054707;28;19931;-79
2021/11/27 05:28:40;;;;;;;;;;;4.40;99.90;;;;;;5054282;28;20433;-78
2021/11/27 05:31:06;;;;;;;;;;;4.40;99.90;;;;;;5053329;28;19908;-79
2021/11/27 05:36:21;;;;;;;;;;;4.40;99.90;;;;;;5034933;28;19909;-78
2021/11/27 05:38:47;;;;;;;;;;;4.40;99.90;;;;;;5053295;28;19909;-78
2021/11/27 05:41:13;;;;;;;;;;;4.40;99.90;;;;;;5054563;28;20031;-79
2021/11/27 05:43:38;;;;;;;;;;;4.40;99.90;;;;;;5054371;28;19909;-79
2021/11/27 05:46:04;;;;;;;;;;;4.40;99.90;;;;;;5054358;28;19909;-78
2021/11/27 05:48:30;;;;;;;;;;;4.40;99.90;;;;;;5054527;28;19908;-78
2021/11/27 05:50:55;;;;;;;;;;;4.20;99.90;;;;;;5054269;28;19955;-80
2021/11/27 05:53:21;;;;;;;;;;;4.40;99.90;;;;;;5054368;28;20434;-79
2021/11/27 05:55:48;;;;;;;;;;;4.50;99.90;;;;;;5053974;28;19916;-79
2021/11/27 05:58:14;;;;;;;;;;;4.60;99.90;;;;;;5052802;28;19917;-79
2021/11/27 06:00:40;;;;;;;;;;;4.70;99.90;;;;;;5054115;28;19915;-78
2021/11/27 06:03:05;;;;;;;;;;;4.80;99.90;;;;;;5054221;28;19916;-79
2021/11/27 06:05:31;;;;;;;;;;;5.00;99.90;;;;;;5054282;28;19916;-79
2021/11/27 06:07:57;;;;;;;;;;;5.10;99.90;;;;;;5054219;28;19917;-79
2021/11/27 06:10:22;;;;;;;;;;;5.20;99.90;;;;;;5053718;28;19927;-80
2021/11/27 06:12:48;;;;;;;;;;;5.20;99.90;;;;;;5054369;28;19939;-79
2021/11/27 06:15:14;;;;;;;;;;;5.30;99.90;;;;;;5054203;28;19959;-79
2021/11/27 06:17:39;;;;;;;;;;;5.30;99.90;;;;;;5053898;28;19948;-79
2021/11/27 06:20:05;;;;;;;;;;;5.40;99.90;;;;;;5053828;28;19909;-79
2021/11/27 06:22:31;;;;;;;;;;;5.50;99.90;;;;;;5053750;28;19955;-78
2021/11/27 06:24:56;;;;;;;;;;;5.60;99.90;;;;;;5052764;28;19999;-79
2021/11/27 06:27:22;;;;;;;;;;;5.50;99.90;;;;;;5053629;28;19951;-79
2021/11/27 06:29:49;;;;;;;;;;;5.60;99.90;;;;;;5053885;28;20042;-79
2021/11/27 06:32:16;;;;;;;;;;;5.60;99.90;;;;;;5053582;28;19916;-79
2021/11/27 06:34:42;;;;;;;;;;;5.70;99.90;;;;;;5053240;28;20344;-79
2021/11/27 06:37:08;;;;;;;;;;;5.70;99.90;;;;;;5053598;28;20384;-78
2021/11/27 06:39:35;;;;;;;;;;;5.70;99.90;;;;;;5053550;28;20009;-79
2021/11/27 06:42:01;;;;;;;;;;;5.80;99.90;;;;;;5053681;28;19909;-80
2021/11/27 06:44:27;;;;;;;;;;;5.80;99.90;;;;;;5053538;28;19912;-79
2021/11/27 06:46:53;;;;;;;;;;;5.70;99.90;;;;;;5053911;28;19913;-79
2021/11/27 06:49:18;;;;;;;;;;;5.70;99.90;;;;;;5053493;28;19908;-79
2021/11/27 06:51:44;;;;;;;;;;;5.70;99.90;;;;;;5052141;28;20262;-79
2021/11/27 06:54:09;;;;;;;;;;;5.70;99.90;;;;;;5053435;28;19908;-79
2021/11/27 06:56:35;;;;;;;;;;;5.70;99.90;;;;;;5053272;28;19913;-79
2021/11/27 06:59:00;;;;;;;;;;;5.70;99.90;;;;;;5053397;28;19909;-79
2021/11/27 07:01:26;;;;;;;;;;;5.70;99.90;;;;;;5053014;28;19913;-78
2021/11/27 07:03:52;;;;;;;;;;;5.70;99.90;;;;;;5051211;28;19908;-79
2021/11/27 07:06:17;;;;;;;;;;;5.70;99.90;;;;;;5052940;28;19917;-79
2021/11/27 07:08:43;;;;;;;;;;;5.70;99.90;;;;;;5055483;28;19913;-79
2021/11/27 07:11:08;;;;;;;;;;;5.70;99.90;;;;;;5057193;28;19935;-79
2021/11/27 07:13:34;;;;;;;;;;;5.70;99.90;;;;;;5057104;28;19909;-79
2021/11/27 07:15:59;;;;;;;;;;;5.70;99.90;;;;;;5055907;28;20305;-79
2021/11/27 07:18:25;;;;;;;;;;;5.80;99.90;;;;;;5057525;28;20300;-79
2021/11/27 07:20:51;;;;;;;;;;;5.80;99.90;;;;;;5057034;28;19955;-79
2021/11/27 07:23:16;;;;;;;;;;;5.80;99.90;;;;;;5056887;28;19948;-79
2021/11/27 07:25:42;;;;;;;;;;;5.80;99.90;;;;;;5056922;28;19909;-79
2021/11/27 07:28:09;;;;;;;;;;;5.80;99.90;;;;;;5056958;28;19909;-79
2021/11/27 07:30:36;;;;;;;;;;;5.80;99.90;;;;;;5054942;28;20387;-79
2021/11/27 07:33:01;;;;;;;;;;;5.90;99.90;;;;;;5056466;28;19916;-79
2021/11/27 07:35:27;;;;;;;;;;;5.90;99.90;;;;;;5056755;28;19940;-79
2021/11/27 07:37:52;;;;;;;;;;;5.90;99.90;;;;;;5056809;28;20328;-79
2021/11/27 07:40:18;;;;;;;;;;;5.90;99.90;;;;;;5056656;28;20421;-79
2021/11/27 07:42:44;;;;;;;;;;;6.00;99.90;;;;;;5056378;28;19913;-79
2021/11/27 07:45:10;;;;;;;;;;;5.90;99.90;;;;;;5056504;28;19909;-79
2021/11/27 07:47:35;;;;;;;;;;;5.90;99.90;;;;;;5055887;28;19913;-79
2021/11/27 07:50:04;;;;;;;;;;;6.00;99.90;;;;;;5056222;28;19909;-79
2021/11/27 07:52:30;;;;;;;;;;;6.00;99.90;;;;;;5056648;28;20297;-79
2021/11/27 07:54:57;;;;;;;;;;;6.00;99.90;;;;;;5056191;28;19915;-79
2021/11/27 07:57:23;;;;;;;;;;;6.00;99.90;;;;;;5055083;28;20320;-79
2021/11/27 07:59:48;;;;;;;;;;;6.10;99.90;;;;;;5056453;28;19916;-79
2021/11/27 08:02:14;;;;;;;;;;;6.10;99.90;;;;;;5056330;28;19941;-79
2021/11/27 08:04:40;;;;;;;;;;;6.20;99.90;;;;;;5056084;28;19909;-79
2021/11/27 08:07:05;;;;;;;;;;;6.20;99.90;;;;;;5056321;28;19916;-78
2021/11/27 08:09:31;;;;;;;;;;;6.30;99.90;;;;;;5054538;28;19920;-79
2021/11/27 08:11:57;;;;;;;;;;;6.30;99.90;;;;;;5056175;28;19908;-78
2021/11/27 08:14:27;;;;;;;;;;;6.30;99.90;;;;;;5056104;28;19908;-79
2021/11/27 08:16:52;;;;;;;;;;;6.40;99.90;;;;;;5055792;28;19959;-79
2021/11/27 08:19:18;;;;;;;;;;;6.40;99.90;;;;;;5054752;28;19909;-79
2021/11/27 08:21:44;;;;;;;;;;;6.40;99.90;;;;;;5056053;28;19980;-80
2021/11/27 08:24:09;;;;;;;;;;;6.40;99.90;;;;;;5055983;28;19915;-78
2021/11/27 08:26:35;;;;;;;;;;;6.40;99.90;;;;;;5056072;28;20384;-79
2021/11/27 08:29:00;;;;;;;;;;;6.40;99.90;;;;;;5055814;28;19916;-79
2021/11/27 08:31:26;;;;;;;;;;;6.50;99.90;;;;;;5055720;28;19995;-80
2021/11/27 08:33:53;;;;;;;;;;;6.60;99.90;;;;;;5055363;28;19920;-81
2021/11/27 08:36:19;;;;;;;;;;;6.70;99.90;;;;;;5055847;28;19909;-79
2021/11/27 08:38:44;;;;;;;;;;;6.70;99.90;;;;;;5055943;28;19909;-79
2021/11/27 08:41:11;;;;;;;;;;;6.70;99.90;;;;;;5055892;28;19909;-79
2021/11/27 08:43:37;;;;;;;;;;;6.60;99.90;;;;;;5055086;28;19936;-78
2021/11/27 08:46:03;;;;;;;;;;;6.70;99.90;;;;;;5055579;28;20291;-79
2021/11/27 08:48:29;;;;;;;;;;;6.60;99.90;;;;;;5054189;28;20278;-79
2021/11/27 08:50:55;;;;;;;;;;;6.60;99.90;;;;;;5055377;28;19913;-78
2021/11/27 08:53:20;;;;;;;;;;;6.60;99.90;;;;;;5055339;28;19909;-79
2021/11/27 08:55:46;;;;;;;;;;;6.60;99.90;;;;;;5055340;28;19909;-80
2021/11/27 08:58:12;;;;;;;;;;;6.70;99.90;;;;;;5055163;28;20008;-79
2021/11/27 09:00:37;;;;;;;;;;;6.80;99.90;;;;;;5055262;28;19909;-79
2021/11/27 09:03:05;;;;;;;;;;;6.90;99.90;;;;;;5055203;28;20342;-80
2021/11/27 09:05:30;;;;;;;;;;;6.80;99.90;;;;;;5055416;28;19912;-79
2021/11/27 09:07:56;;;;;;;;;;;6.70;99.90;;;;;;5053827;28;20290;-79
2021/11/27 09:10:22;;;;;;;;;;;6.70;99.90;;;;;;5054812;28;19924;-79
2021/11/27 09:12:48;;;;;;;;;;;6.60;99.90;;;;;;5053718;28;19996;-79
2021/11/27 09:15:13;;;;;;;;;;;6.60;99.90;;;;;;5053673;28;19913;-79
2021/11/27 09:17:39;;;;;;;;;;;6.60;99.90;;;;;;5055190;28;19935;-79
2021/11/27 09:20:05;;;;;;;;;;;6.70;99.90;;;;;;5054845;28;19913;-79
2021/11/27 09:22:30;;;;;;;;;;;7.00;99.90;;;;;;5053507;28;19955;-79
2021/11/27 09:24:56;;;;;;;;;;;8.50;99.90;;;;;;5054948;28;20387;-80
2021/11/27 09:27:22;;;;;;;;;;;8.70;99.90;;;;;;5054778;28;20004;-79
2021/11/27 09:29:47;;;;;;;;;;;8.40;99.90;;;;;;5054687;28;19923;-79
2021/11/27 09:32:14;;;;;;;;;;;8.00;99.90;;;;;;5053147;28;19913;-79
2021/11/27 09:34:40;;;;;;;;;;;7.90;99.90;;;;;;5052082;28;19996;-80
2021/11/27 09:37:11;;;;;;;;;;;8.00;99.90;;;;;;5054650;28;20004;-79
2021/11/27 09:39:37;;;;;;;;;;;8.30;99.90;;;;;;5054673;28;19944;-79
2021/11/27 09:42:02;;;;;;;;;;;8.20;99.90;;;;;;5054875;28;20380;-79
2021/11/27 09:44:34;;;;;;;;;;;8.10;99.90;;;;;;5054190;28;19908;-79
2021/11/27 09:47:01;;;;;;;;;;;8.20;99.90;;;;;;5054689;28;19909;-78
2021/11/27 09:49:27;;;;;;;;;;;8.00;99.90;;;;;;5054820;28;19908;-80
2021/11/27 09:51:53;;;;;;;;;;;7.90;99.90;;;;;;5054638;28;19909;-79
2021/11/27 09:54:19;;;;;;;;;;;7.70;99.90;;;;;;5054440;28;20063;-79
2021/11/27 09:56:46;;;;;;;;;;;7.60;99.90;;;;;;5054364;28;20405;-79
2021/11/27 09:59:11;;;;;;;;;;;7.40;99.90;;;;;;5054389;28;19909;-79
2021/11/27 10:01:37;;;;;;;;;;;7.40;99.90;;;;;;5053189;28;19916;-79
2021/11/27 10:04:04;;;;;;;;;;;7.40;99.90;;;;;;5053824;28;19909;-79
2021/11/27 10:06:34;;;;;;;;;;;7.50;99.90;;;;;;5054231;28;20346;-79
2021/11/27 10:09:02;;;;;;;;;;;7.70;99.90;;;;;;5053976;28;19916;-78
2021/11/27 10:11:27;;;;;;;;;;;7.60;99.90;;;;;;5053060;28;20411;-79
2021/11/27 10:13:53;;;;;;;;;;;7.50;99.90;;;;;;5054027;28;19913;-80
2021/11/27 10:16:19;;;;;;;;;;;7.80;99.90;;;;;;5053545;28;20087;-79
2021/11/27 10:19:01;;;;;;;;;;;10.20;99.90;;;;;;5053837;28;19909;-79
2021/11/27 10:21:26;;;;;;;;;;;11.40;97.60;;;;;;5052556;28;19954;-79
2021/11/27 10:23:52;;;;;;;;;;;10.60;98.00;;;;;;5054047;28;19912;-79
2021/11/27 10:26:31;;;;;;;;;;;10.00;99.40;;;;;;5052437;28;19916;-79
2021/11/27 10:29:12;;;;;;;;;;;9.20;99.90;;;;;;5053884;28;19996;-79
2021/11/27 10:31:38;;;;;;;;;;;8.60;99.90;;;;;;5054151;28;20405;-79
2021/11/27 10:34:03;;;;;;;;;;;8.50;99.90;;;;;;5053830;28;19948;-78
2021/11/27 10:36:33;;;;;;;;;;;8.80;99.90;;;;;;5052610;28;19908;-80
2021/11/27 10:39:06;;;;;;;;;;;11.10;97.90;;;;;;5053870;28;19924;-79
2021/11/27 10:41:38;;;;;;;;;;;13.60;91.30;;;;;;5053605;28;20324;-79
2021/11/27 10:44:06;;;;;;;;;;;14.70;85.00;;;;;;5053181;28;19913;-79
2021/11/27 10:46:35;;;;;;;;;;;16.50;74.60;;;;;;5054070;28;19909;-79
2021/11/27 10:49:01;;;;;;;;;;;17.10;69.40;;;;;;5052389;28;19909;-80
2021/11/27 10:51:27;;;;;;;;;;;14.50;75.60;;;;;;5053589;28;19943;-80
2021/11/27 10:54:00;;;;;;;;;;;13.10;82.70;;;;;;5053420;28;19908;-79
2021/11/27 10:56:38;;;;;;;;;;;13.00;83.70;;;;;;5052306;28;19909;-79
2021/11/27 10:59:05;;;;;;;;;;;15.80;78.40;;;;;;5053965;28;19962;-80
2021/11/27 11:01:30;;;;;;;;;;;18.60;68.50;;;;;;5053602;28;19915;-79
2021/11/27 11:04:12;;;;;;;;;;;17.40;67.00;;;;;;5053337;28;19909;-80
2021/11/27 11:06:38;;;;;;;;;;;14.60;72.10;;;;;;5053591;28;19909;-79
2021/11/27 11:09:04;;;;;;;;;;;12.40;80.30;;;;;;5053307;28;19944;-79
2021/11/27 11:11:30;;;;;;;;;;;11.30;87.50;;;;;;5053904;28;19935;-79
2021/11/27 11:13:57;;;;;;;;;;;10.20;92.20;;;;;;5053587;28;19918;-79
2021/11/27 11:16:24;;;;;;;;;;;9.50;95.50;;;;;;5053207;28;20308;-79
2021/11/27 11:18:56;;;;;;;;;;;9.00;98.50;;;;;;5053518;28;19909;-79
2021/11/27 11:21:23;;;;;;;;;;;8.40;99.90;;;;;;5052665;28;20408;-78
2021/11/27 11:23:49;;;;;;;;;;;8.10;99.90;;;;;;5051684;28;19916;-79
2021/11/27 11:26:16;;;;;;;;;;;8.00;99.90;;;;;;5053248;28;19909;-79
2021/11/27 11:28:49;;;;;;;;;;;7.90;99.90;;;;;;5053159;28;19909;-79
2021/11/27 11:31:17;;;;;;;;;;;8.00;99.90;;;;;;5051867;28;19909;-79
2021/11/27 11:33:47;;;;;;;;;;;8.00;99.90;;;;;;5053350;28;19913;-78
2021/11/27 11:36:14;;;;;;;;;;;7.70;99.90;;;;;;5053027;28;20327;-79
2021/11/27 11:38:41;;;;;;;;;;;7.70;99.90;;;;;;5051608;28;20003;-78
2021/11/27 11:41:07;;;;;;;;;;;7.60;99.90;;;;;;5051734;28;19909;-79
2021/11/27 11:43:33;;;;;;;;;;;7.50;99.90;;;;;;5053021;28;19952;-79
2021/11/27 11:45:59;;;;;;;;;;;7.50;99.90;;;;;;5052860;28;20250;-79
2021/11/27 11:48:26;;;;;;;;;;;7.60;99.90;;;;;;5053215;28;19908;-78
2021/11/27 11:51:06;;;;;;;;;;;7.80;99.90;;;;;;5052580;28;19916;-80
2021/11/27 11:53:49;;;;;;;;;;;7.50;99.90;;;;;;5052484;28;19908;-79
2021/11/27 11:56:16;;;;;;;;;;;7.60;99.90;;;;;;5054958;28;19908;-79
2021/11/27 11:58:43;;;;;;;;;;;7.70;99.90;;;;;;5056028;28;19912;-80
2021/11/27 12:01:19;;;;;;;;;;;7.60;99.90;;;;;;5056135;28;20005;-79
2021/11/27 12:03:46;;;;;;;;;;;7.60;99.90;;;;;;5056044;28;19913;-80
2021/11/27 12:06:13;;;;;;;;;;;7.70;99.90;;;;;;5055164;28;19909;-79
2021/11/27 12:08:48;;;;;;;;;;;7.60;99.90;;;;;;5055879;28;19909;-79
2021/11/27 12:11:32;;;;;;;;;;;7.40;99.90;;;;;;5056393;28;19955;-79
2021/11/27 12:13:57;;;;;;;;;;;7.30;99.90;;;;;;5056135;28;19979;-79
2021/11/27 12:16:23;;;;;;;;;;;7.40;99.90;;;;;;5056080;28;20374;-79
2021/11/27 12:19:07;;;;;;;;;;;7.30;99.90;;;;;;5056617;28;19912;-78
2021/11/27 12:21:33;;;;;;;;;;;7.30;99.90;;;;;;5055984;28;19908;-79
2021/11/27 12:23:58;;;;;;;;;;;7.10;99.90;;;;;;5055965;28;20427;-79
2021/11/27 12:26:24;;;;;;;;;;;6.90;99.90;;;;;;5055936;28;19908;-79
2021/11/27 12:28:50;;;;;;;;;;;6.80;99.90;;;;;;5054592;28;19916;-79
2021/11/27 12:31:17;;;;;;;;;;;6.70;99.90;;;;;;5054522;28;20361;-79
2021/11/27 12:33:52;;;;;;;;;;;6.80;99.90;;;;;;5055707;28;19923;-78
2021/11/27 12:36:27;;;;;;;;;;;6.80;99.90;;;;;;5054231;28;19913;-78
2021/11/27 12:38:54;;;;;;;;;;;6.90;99.90;;;;;;5055559;28;19998;-78
2021/11/27 12:41:24;;;;;;;;;;;7.10;99.90;;;;;;5055665;28;19909;-78
2021/11/27 12:44:08;;;;;;;;;;;7.30;99.90;;;;;;5055540;28;19913;-78
2021/11/27 12:46:33;;;;;;;;;;;7.40;99.90;;;;;;5055548;28;19927;-78
2021/11/27 12:48:59;;;;;;;;;;;7.90;99.90;;;;;;5055517;28;20387;-78
2021/11/27 12:51:25;;;;;;;;;;;7.70;99.90;;;;;;5055671;28;19955;-79
2021/11/27 12:54:03;;;;;;;;;;;7.50;99.90;;;;;;5055539;28;19909;-79
2021/11/27 12:56:47;;;;;;;;;;;7.40;99.90;;;;;;5055354;28;19948;-78
2021/11/27 12:59:16;;;;;;;;;;;7.30;99.90;;;;;;5055281;28;19909;-78
2021/11/27 13:01:41;;;;;;;;;;;7.40;99.90;;;;;;5055239;28;19909;-79
2021/11/27 13:04:07;;;;;;;;;;;7.40;99.90;;;;;;5055341;28;19955;-80
2021/11/27 13:06:33;;;;;;;;;;;7.50;99.90;;;;;;5054652;28;19908;-78
2021/11/27 13:09:09;;;;;;;;;;;7.70;99.90;;;;;;5054839;28;20347;-78
2021/11/27 13:11:38;;;;;;;;;;;7.80;99.90;;;;;;5053538;28;19952;-79
2021/11/27 13:14:04;;;;;;;;;;;7.90;99.90;;;;;;5055351;28;20377;-79
2021/11/27 13:16:32;;;;;;;;;;;7.90;99.90;;;;;;5055155;28;20000;-79
2021/11/27 13:18:58;;;;;;;;;;;7.90;99.90;;;;;;5053627;28;20344;-79
2021/11/27 13:21:26;;;;;;;;;;;7.90;99.90;;;;;;5054882;28;19999;-79
2021/11/27 13:23:56;;;;;;;;;;;7.90;99.90;;;;;;5053838;28;20216;-79
2021/11/27 13:26:23;;;;;;;;;;;8.30;99.90;;;;;;5053514;28;19912;-78
2021/11/27 13:28:53;;;;;;;;;;;8.30;99.90;;;;;;5054856;28;19909;-79
2021/11/27 13:31:24;;;;;;;;;;;8.50;99.90;;;;;;5054696;28;19909;-79
2021/11/27 13:33:57;;;;;;;;;;;8.70;99.80;;;;;;5054836;28;19950;-78
2021/11/27 13:36:34;;;;;;;;;;;8.70;99.40;;;;;;5053715;28;19935;-79
2021/11/27 13:39:18;;;;;;;;;;;9.00;99.60;;;;;;5053444;28;19947;-79
2021/11/27 13:41:47;;;;;;;;;;;9.00;99.30;;;;;;5053825;28;19913;-79
2021/11/27 13:44:13;;;;;;;;;;;9.40;98.90;;;;;;5054556;28;20284;-79
2021/11/27 13:46:52;;;;;;;;;;;9.00;99.70;;;;;;5054277;28;19913;-80
2021/11/27 13:49:28;;;;;;;;;;;8.80;99.90;;;;;;5054253;28;20336;-78
2021/11/27 13:51:54;;;;;;;;;;;9.70;99.80;;;;;;5054192;28;20413;-79
2021/11/27 13:54:20;;;;;;;;;;;9.80;98.30;;;;;;5054345;28;19987;-79
2021/11/27 13:56:45;;;;;;;;;;;9.40;98.70;;;;;;5054245;28;19908;-79
2021/11/27 13:59:22;;;;;;;;;;;9.00;98.60;;;;;;5054257;28;20323;-80
2021/11/27 14:01:57;;;;;;;;;;;8.60;99.60;;;;;;5054372;28;19909;-78
2021/11/27 14:04:26;;;;;;;;;;;8.30;99.90;;;;;;5054218;28;20061;-79
2021/11/27 14:06:59;;;;;;;;;;;8.20;99.90;;;;;;5053668;28;19909;-79
2021/11/27 14:09:43;;;;;;;;;;;8.30;99.90;;;;;;5053773;28;20400;-78
2021/11/27 14:12:28;;;;;;;;;;;8.70;99.90;;;;;;5054173;28;19913;-78
2021/11/27 14:14:55;;;;;;;;;;;8.90;99.90;;;;;;5054020;28;19948;-78
2021/11/27 14:17:20;;;;;;;;;;;9.00;99.90;;;;;;5053090;28;19939;-79
2021/11/27 14:19:46;;;;;;;;;;;9.00;99.90;;;;;;5052559;28;19908;-79
2021/11/27 14:22:14;;;;;;;;;;;9.70;99.90;;;;;;5053839;28;20395;-79
2021/11/27 14:24:40;;;;;;;;;;;10.50;97.70;;;;;;5052493;28;20404;-78
2021/11/27 14:27:06;;;;;;;;;;;10.30;95.80;;;;;;5053731;28;19916;-79
2021/11/27 14:29:32;;;;;;;;;;;9.80;97.00;;;;;;5053916;28;19909;-79
2021/11/27 14:31:57;;;;;;;;;;;10.60;96.70;;;;;;5053628;28;19909;-80